createdAt,value
2023-03-28T00:00:27.632Z,17.60
2023-03-28T00:01:26.646Z,17.57
2023-03-28T00:02:26.632Z,17.57
2023-03-28T00:03:26.658Z,17.52
2023-03-28T00:04:26.591Z,17.51
2023-03-28T00:05:26.634Z,17.51
2023-03-28T00:06:26.626Z,17.44
2023-03-28T00:07:26.571Z,17.43
2023-03-28T00:08:26.556Z,17.40
2023-03-28T00:09:26.555Z,17.40
2023-03-28T00:10:26.565Z,17.39
2023-03-28T00:11:26.598Z,17.40
2023-03-28T00:12:26.591Z,17.37
2023-03-28T00:13:26.645Z,17.38
2023-03-28T00:14:26.687Z,17.39
2023-03-28T00:15:26.744Z,17.44
2023-03-28T00:16:26.923Z,17.46
2023-03-28T00:17:26.852Z,17.41
2023-03-28T00:18:26.829Z,17.42
2023-03-28T00:19:26.830Z,17.36
2023-03-28T00:20:26.878Z,17.39
2023-03-28T00:21:26.921Z,17.41
2023-03-28T00:22:27.018Z,17.43
2023-03-28T00:23:27.034Z,17.35
2023-03-28T00:24:27.081Z,17.40
2023-03-28T00:25:27.135Z,17.36
2023-03-28T00:26:27.208Z,17.37
2023-03-28T00:27:27.249Z,17.36
2023-03-28T00:28:27.293Z,17.38
2023-03-28T00:29:27.340Z,17.33
2023-03-28T00:30:27.449Z,17.31
2023-03-28T00:31:27.515Z,17.33
2023-03-28T00:32:27.559Z,17.33
2023-03-28T00:33:27.578Z,17.28
2023-03-28T00:34:27.593Z,17.28
2023-03-28T00:35:27.623Z,17.26
2023-03-28T00:36:27.596Z,17.29
2023-03-28T00:37:27.629Z,17.31
2023-03-28T00:38:27.636Z,17.28
2023-03-28T00:39:27.633Z,17.30
2023-03-28T00:40:27.647Z,17.31
2023-03-28T00:41:27.651Z,17.25
2023-03-28T00:42:27.652Z,17.28
2023-03-28T00:43:27.685Z,17.26
2023-03-28T00:44:27.701Z,17.25
2023-03-28T00:45:27.698Z,17.24
2023-03-28T00:46:27.718Z,17.25
2023-03-28T00:47:27.749Z,17.27
2023-03-28T00:48:27.694Z,17.24
2023-03-28T00:49:27.739Z,17.25
2023-03-28T00:50:27.805Z,17.24
2023-03-28T00:51:27.846Z,17.28
2023-03-28T00:52:27.891Z,17.26
2023-03-28T00:53:27.956Z,17.28
2023-03-28T00:54:28.005Z,17.26
2023-03-28T00:55:28.029Z,17.29
2023-03-28T00:56:28.028Z,17.29
2023-03-28T00:57:28.107Z,17.30
2023-03-28T00:58:28.154Z,17.31
2023-03-28T00:59:28.208Z,17.30
2023-03-28T01:00:28.265Z,17.27
2023-03-28T01:01:28.348Z,17.34
2023-03-28T01:02:28.425Z,17.30
2023-03-28T01:03:28.525Z,17.28
2023-03-28T01:04:28.425Z,17.24
2023-03-28T01:05:28.453Z,17.25
2023-03-28T01:06:28.439Z,17.24
2023-03-28T01:07:28.453Z,17.20
2023-03-28T01:08:28.499Z,17.21
2023-03-28T01:09:28.509Z,17.19
2023-03-28T01:10:28.496Z,17.22
2023-03-28T01:11:28.524Z,17.21
2023-03-28T01:12:28.577Z,17.20
2023-03-28T01:13:28.623Z,17.22
2023-03-28T01:14:28.677Z,17.14
2023-03-28T01:15:28.742Z,17.17
2023-03-28T01:16:28.796Z,17.14
2023-03-28T01:17:28.828Z,17.13
2023-03-28T01:18:28.870Z,17.16
2023-03-28T01:19:28.916Z,17.12
2023-03-28T01:20:28.969Z,17.09
2023-03-28T01:21:28.982Z,17.09
2023-03-28T01:22:28.990Z,17.14
2023-03-28T01:23:29.015Z,17.09
2023-03-28T01:24:29.048Z,17.09
2023-03-28T01:25:29.098Z,17.07
2023-03-28T01:26:29.092Z,17.12
2023-03-28T01:27:29.094Z,17.09
2023-03-28T01:28:29.123Z,17.12
2023-03-28T01:29:29.175Z,17.09
2023-03-28T01:30:29.217Z,17.10
2023-03-28T01:31:29.323Z,17.11
2023-03-28T01:32:29.310Z,17.09
2023-03-28T01:33:29.395Z,17.11
2023-03-28T01:34:29.434Z,17.15
2023-03-28T01:35:29.490Z,17.12
2023-03-28T01:36:33.953Z,17.14
2023-03-28T01:37:30.508Z,17.12
2023-03-28T01:38:29.477Z,17.12
2023-03-28T01:39:29.482Z,17.09
2023-03-28T01:40:29.476Z,17.13
2023-03-28T01:41:29.469Z,17.12
2023-03-28T01:42:29.449Z,17.14
2023-03-28T01:43:29.445Z,17.18
2023-03-28T01:44:29.450Z,17.18
2023-03-28T01:45:29.513Z,17.16
2023-03-28T01:46:29.477Z,17.21
2023-03-28T01:47:29.435Z,17.23
2023-03-28T01:48:29.421Z,17.16
2023-03-28T01:49:29.413Z,17.18
2023-03-28T01:50:29.439Z,17.19
2023-03-28T01:51:29.483Z,17.22
2023-03-28T01:52:29.525Z,17.25
2023-03-28T01:53:29.570Z,17.24
2023-03-28T01:54:29.604Z,17.22
2023-03-28T01:55:29.636Z,17.22
2023-03-28T01:56:29.706Z,17.24
2023-03-28T01:57:29.830Z,17.27
2023-03-28T01:58:29.728Z,17.34
2023-03-28T01:59:29.753Z,17.39
2023-03-28T02:00:29.764Z,17.43
2023-03-28T02:01:29.816Z,17.46
2023-03-28T02:02:29.952Z,17.52
2023-03-28T02:03:29.874Z,17.51
2023-03-28T02:04:29.829Z,17.55
2023-03-28T02:05:29.855Z,17.56
2023-03-28T02:06:29.856Z,17.55
2023-03-28T02:07:29.870Z,17.57
2023-03-28T02:08:29.913Z,17.59
2023-03-28T02:09:29.943Z,17.62
2023-03-28T02:10:30.010Z,17.62
2023-03-28T02:11:30.054Z,17.61
2023-03-28T02:12:30.096Z,17.65
2023-03-28T02:13:30.093Z,17.61
2023-03-28T02:14:30.121Z,17.62
2023-03-28T02:15:30.191Z,17.61
2023-03-28T02:16:30.196Z,17.61
2023-03-28T02:17:30.241Z,17.60
2023-03-28T02:18:30.209Z,17.62
2023-03-28T02:19:30.213Z,17.59
2023-03-28T02:20:30.260Z,17.61
2023-03-28T02:21:30.257Z,17.60
2023-03-28T02:22:30.255Z,17.64
2023-03-28T02:23:30.279Z,17.63
2023-03-28T02:24:30.297Z,17.65
2023-03-28T02:25:30.317Z,17.65
2023-03-28T02:26:30.372Z,17.67
2023-03-28T02:27:30.387Z,17.65
2023-03-28T02:28:30.401Z,17.68
2023-03-28T02:29:30.409Z,17.67
2023-03-28T02:30:30.410Z,17.68
2023-03-28T02:31:30.444Z,17.68
2023-03-28T02:32:30.494Z,17.70
2023-03-28T02:33:30.511Z,17.71
2023-03-28T02:34:30.565Z,17.71
2023-03-28T02:35:30.667Z,17.69
2023-03-28T02:36:30.580Z,17.71
2023-03-28T02:37:30.600Z,17.72
2023-03-28T02:38:30.639Z,17.68
2023-03-28T02:39:30.622Z,17.73
2023-03-28T02:40:30.639Z,17.71
2023-03-28T02:41:30.639Z,17.71
2023-03-28T02:42:30.648Z,17.72
2023-03-28T02:43:30.682Z,17.72
2023-03-28T02:44:30.684Z,17.69
2023-03-28T02:45:30.700Z,17.68
2023-03-28T02:46:30.784Z,17.72
2023-03-28T02:47:30.830Z,17.68
2023-03-28T02:48:30.832Z,17.67
2023-03-28T02:49:40.590Z,17.68
2023-03-28T02:50:31.884Z,17.69
2023-03-28T02:51:30.879Z,17.69
2023-03-28T02:52:30.859Z,17.70
2023-03-28T02:53:30.865Z,17.68
2023-03-28T02:54:30.873Z,17.70
2023-03-28T02:55:30.846Z,17.72
2023-03-28T02:56:30.839Z,17.75
2023-03-28T02:57:30.835Z,17.75
2023-03-28T02:58:30.817Z,17.75
2023-03-28T02:59:30.812Z,17.74
2023-03-28T03:00:30.799Z,17.76
2023-03-28T03:01:30.885Z,17.78
2023-03-28T03:02:30.853Z,17.81
2023-03-28T03:03:30.912Z,17.80
2023-03-28T03:04:30.939Z,17.85
2023-03-28T03:05:31.021Z,17.85
2023-03-28T03:06:31.066Z,17.86
2023-03-28T03:07:31.138Z,17.89
2023-03-28T03:08:31.162Z,17.90
2023-03-28T03:09:31.196Z,17.90
2023-03-28T03:10:31.246Z,17.94
2023-03-28T03:11:31.288Z,17.93
2023-03-28T03:12:31.291Z,17.95
2023-03-28T03:13:31.359Z,17.96
2023-03-28T03:14:31.367Z,17.97
2023-03-28T03:15:31.409Z,17.98
2023-03-28T03:16:31.590Z,18.00
2023-03-28T03:17:31.577Z,18.02
2023-03-28T03:18:31.580Z,18.02
2023-03-28T03:19:31.614Z,18.03
2023-03-28T03:20:31.656Z,18.00
2023-03-28T03:21:31.685Z,18.02
2023-03-28T03:22:31.743Z,18.02
2023-03-28T03:23:31.811Z,18.02
2023-03-28T03:24:31.831Z,18.01
2023-03-28T03:25:31.886Z,18.01
2023-03-28T03:26:31.910Z,18.01
2023-03-28T03:27:31.978Z,18.03
2023-03-28T03:28:31.949Z,18.03
2023-03-28T03:29:38.745Z,18.03
2023-03-28T03:30:32.925Z,17.99
2023-03-28T03:31:31.974Z,18.02
2023-03-28T03:32:31.957Z,18.03
2023-03-28T03:33:32.612Z,18.01
2023-03-28T03:34:31.901Z,18.00
2023-03-28T03:35:31.969Z,17.98
2023-03-28T03:36:31.942Z,18.00
2023-03-28T03:37:31.873Z,17.98
2023-03-28T03:38:31.874Z,17.95
2023-03-28T03:39:31.850Z,17.96
2023-03-28T03:40:31.924Z,17.96
2023-03-28T03:41:31.937Z,17.95
2023-03-28T03:42:32.008Z,17.93
2023-03-28T03:43:32.030Z,17.95
2023-03-28T03:44:32.045Z,17.95
2023-03-28T03:45:32.047Z,17.95
2023-03-28T03:46:32.127Z,17.93
2023-03-28T03:47:32.075Z,17.95
2023-03-28T03:48:32.059Z,17.94
2023-03-28T03:49:32.089Z,17.93
2023-03-28T03:50:32.131Z,17.94
2023-03-28T03:51:32.153Z,17.95
2023-03-28T03:52:32.241Z,17.89
2023-03-28T03:53:32.256Z,17.93
2023-03-28T03:54:32.308Z,17.92
2023-03-28T03:55:32.351Z,17.91
2023-03-28T03:56:32.350Z,17.93
2023-03-28T03:57:32.402Z,17.94
2023-03-28T03:58:32.416Z,17.93
2023-03-28T03:59:32.470Z,17.90
2023-03-28T04:00:32.496Z,17.88
2023-03-28T04:01:32.544Z,17.89
2023-03-28T04:02:32.693Z,17.88
2023-03-28T04:03:32.584Z,17.86
2023-03-28T04:04:32.650Z,17.90
2023-03-28T04:05:32.716Z,17.87
2023-03-28T04:06:32.762Z,17.83
2023-03-28T04:07:32.761Z,17.84
2023-03-28T04:08:32.887Z,17.83
2023-03-28T04:09:32.871Z,17.80
2023-03-28T04:10:32.926Z,17.81
2023-03-28T04:11:32.946Z,17.78
2023-03-28T04:12:33.005Z,17.77
2023-03-28T04:13:33.053Z,17.77
2023-03-28T04:14:33.095Z,17.77
2023-03-28T04:15:33.152Z,17.77
2023-03-28T04:16:41.007Z,17.76
2023-03-28T04:17:34.222Z,17.77
2023-03-28T04:18:33.186Z,17.78
2023-03-28T04:19:33.194Z,17.74
2023-03-28T04:20:33.159Z,17.76
2023-03-28T04:21:33.178Z,17.78
2023-03-28T04:22:33.170Z,17.77
2023-03-28T04:23:35.277Z,17.74
2023-03-28T04:24:33.365Z,17.74
2023-03-28T04:25:33.480Z,17.76
2023-03-28T04:26:33.414Z,17.76
2023-03-28T04:27:33.436Z,17.74
2023-03-28T04:28:33.439Z,17.74
2023-03-28T04:29:33.462Z,17.74
2023-03-28T04:30:33.459Z,17.70
2023-03-28T04:31:33.536Z,17.71
2023-03-28T04:32:33.508Z,17.72
2023-03-28T04:33:33.475Z,17.71
2023-03-28T04:34:33.486Z,17.71
2023-03-28T04:35:33.504Z,17.71
2023-03-28T04:36:33.511Z,17.72
2023-03-28T04:37:33.527Z,17.70
2023-03-28T04:38:33.534Z,17.68
2023-03-28T04:39:33.576Z,17.66
2023-03-28T04:40:33.602Z,17.64
2023-03-28T04:41:33.670Z,17.65
2023-03-28T04:42:33.668Z,17.59
2023-03-28T04:43:33.691Z,17.61
2023-03-28T04:44:33.705Z,17.54
2023-03-28T04:45:33.734Z,17.55
2023-03-28T04:46:33.745Z,17.52
2023-03-28T04:47:33.773Z,17.53
2023-03-28T04:48:33.783Z,17.53
2023-03-28T04:49:33.831Z,17.54
2023-03-28T04:50:35.747Z,17.52
2023-03-28T04:51:33.915Z,17.54
2023-03-28T04:52:33.961Z,17.53
2023-03-28T04:53:34.010Z,17.55
2023-03-28T04:54:34.060Z,17.49
2023-03-28T04:55:34.119Z,17.44
2023-03-28T04:56:34.150Z,17.46
2023-03-28T04:57:34.171Z,17.43
2023-03-28T04:58:34.178Z,17.44
2023-03-28T04:59:34.227Z,17.41
2023-03-28T05:00:34.214Z,17.43
2023-03-28T05:01:34.273Z,17.41
2023-03-28T05:02:34.308Z,17.41
2023-03-28T05:03:34.380Z,17.45
2023-03-28T05:04:34.397Z,17.44
2023-03-28T05:05:34.445Z,17.44
2023-03-28T05:06:34.503Z,17.49
2023-03-28T05:07:34.561Z,17.51
2023-03-28T05:08:34.617Z,17.55
2023-03-28T05:09:34.653Z,17.56
2023-03-28T05:10:34.714Z,17.53
2023-03-28T05:11:34.771Z,17.56
2023-03-28T05:12:34.805Z,17.52
2023-03-28T05:13:34.877Z,17.54
2023-03-28T05:14:34.923Z,17.53
2023-03-28T05:15:34.952Z,17.48
2023-03-28T05:16:35.025Z,17.45
2023-03-28T05:17:35.056Z,17.43
2023-03-28T05:18:35.077Z,17.40
2023-03-28T05:19:35.091Z,17.39
2023-03-28T05:20:35.101Z,17.38
2023-03-28T05:21:35.121Z,17.32
2023-03-28T05:22:35.148Z,17.31
2023-03-28T05:23:35.166Z,17.35
2023-03-28T05:24:36.862Z,17.36
2023-03-28T05:25:35.242Z,17.25
2023-03-28T05:26:35.233Z,17.25
2023-03-28T05:27:35.236Z,17.72
2023-03-28T05:28:35.260Z,18.47
2023-03-28T05:29:35.291Z,18.33
2023-03-28T05:30:35.304Z,18.76
2023-03-28T05:31:35.874Z,18.86
2023-03-28T05:32:35.331Z,19.19
2023-03-28T05:33:35.358Z,19.85
2023-03-28T05:34:36.201Z,19.96
2023-03-28T05:35:35.363Z,19.82
2023-03-28T05:36:35.822Z,20.07
2023-03-28T05:37:35.361Z,20.66
2023-03-28T05:38:35.355Z,20.43
2023-03-28T05:39:35.396Z,20.61
2023-03-28T05:40:35.403Z,20.47
2023-03-28T05:41:35.933Z,20.31
2023-03-28T05:42:35.457Z,19.95
2023-03-28T05:43:35.495Z,19.85
2023-03-28T05:44:35.551Z,19.90
2023-03-28T05:45:35.690Z,19.97
2023-03-28T05:46:35.806Z,19.89
2023-03-28T05:47:35.745Z,20.01
2023-03-28T05:48:35.698Z,19.97
2023-03-28T05:49:35.704Z,20.00
2023-03-28T05:50:35.730Z,20.28
2023-03-28T05:51:35.828Z,20.23
2023-03-28T05:52:35.781Z,20.40
2023-03-28T05:53:35.795Z,20.46
2023-03-28T05:54:35.835Z,20.53
2023-03-28T05:55:36.119Z,20.97
2023-03-28T05:56:35.955Z,20.77
2023-03-28T05:57:35.854Z,20.32
2023-03-28T05:58:35.910Z,19.98
2023-03-28T05:59:35.970Z,20.01
2023-03-28T06:00:35.999Z,20.17
2023-03-28T06:01:36.026Z,21.07
2023-03-28T06:02:36.150Z,21.15
2023-03-28T06:03:36.163Z,20.85
2023-03-28T06:04:36.161Z,20.99
2023-03-28T06:05:36.199Z,20.91
2023-03-28T06:06:36.231Z,20.78
2023-03-28T06:07:42.533Z,20.83
2023-03-28T06:08:37.280Z,20.79
2023-03-28T06:09:36.269Z,20.83
2023-03-28T06:10:36.269Z,20.67
2023-03-28T06:11:36.277Z,20.80
2023-03-28T06:12:36.345Z,20.55
2023-03-28T06:13:36.219Z,20.66
2023-03-28T06:14:36.225Z,20.74
2023-03-28T06:15:36.223Z,20.72
2023-03-28T06:16:36.234Z,20.73
2023-03-28T06:17:36.264Z,20.79
2023-03-28T06:18:36.183Z,21.06
2023-03-28T06:19:36.195Z,20.61
2023-03-28T06:20:36.161Z,21.08
2023-03-28T06:21:36.204Z,20.97
2023-03-28T06:22:36.252Z,21.15
2023-03-28T06:23:36.302Z,20.88
2023-03-28T06:24:36.343Z,20.94
2023-03-28T06:25:36.389Z,20.84
2023-03-28T06:26:36.445Z,20.93
2023-03-28T06:27:36.479Z,20.85
2023-03-28T06:28:36.473Z,20.94
2023-03-28T06:29:36.511Z,20.85
2023-03-28T06:30:36.550Z,20.80
2023-03-28T06:31:36.644Z,21.20
2023-03-28T06:32:36.857Z,21.71
2023-03-28T06:33:36.682Z,21.31
2023-03-28T06:34:36.695Z,21.55
2023-03-28T06:35:36.753Z,21.60
2023-03-28T06:36:36.772Z,21.66
2023-03-28T06:37:37.349Z,20.60
2023-03-28T06:38:36.956Z,19.89
2023-03-28T06:39:36.902Z,19.53
2023-03-28T06:40:36.934Z,19.35
2023-03-28T06:41:36.975Z,19.34
2023-03-28T06:42:37.373Z,19.35
2023-03-28T06:43:37.065Z,19.29
2023-03-28T06:44:37.087Z,19.23
2023-03-28T06:45:37.112Z,18.91
2023-03-28T06:46:37.159Z,18.89
2023-03-28T06:47:37.216Z,18.88
2023-03-28T06:48:37.231Z,19.03
2023-03-28T06:49:37.285Z,19.15
2023-03-28T06:50:37.308Z,19.30
2023-03-28T06:51:37.317Z,19.41
2023-03-28T06:52:37.854Z,19.50
2023-03-28T06:53:37.386Z,19.53
2023-03-28T06:54:37.432Z,19.60
2023-03-28T06:55:37.446Z,19.95
2023-03-28T06:56:37.588Z,19.68
2023-03-28T06:57:37.569Z,20.23
2023-03-28T06:58:37.629Z,20.26
2023-03-28T06:59:37.832Z,20.36
2023-03-28T07:00:37.684Z,20.56
2023-03-28T07:01:37.843Z,20.60
2023-03-28T07:02:37.926Z,20.58
2023-03-28T07:03:37.798Z,20.65
2023-03-28T07:04:37.802Z,20.65
2023-03-28T07:05:37.844Z,20.65
2023-03-28T07:06:37.876Z,20.68
2023-03-28T07:07:37.943Z,20.61
2023-03-28T07:08:37.994Z,20.61
2023-03-28T07:09:38.037Z,20.63
2023-03-28T07:10:38.068Z,20.63
2023-03-28T07:11:38.104Z,20.59
2023-03-28T07:12:38.341Z,20.67
2023-03-28T07:13:38.173Z,20.63
2023-03-28T07:14:38.213Z,20.53
2023-03-28T07:15:38.220Z,20.57
2023-03-28T07:16:38.312Z,20.68
2023-03-28T07:17:38.389Z,20.44
2023-03-28T07:18:38.374Z,20.66
2023-03-28T07:19:38.438Z,20.64
2023-03-28T07:20:38.473Z,20.29
2023-03-28T07:21:38.515Z,20.09
2023-03-28T07:22:38.526Z,20.30
2023-03-28T07:23:38.572Z,20.39
2023-03-28T07:24:38.586Z,20.46
2023-03-28T07:25:38.871Z,20.47
2023-03-28T07:26:38.670Z,20.18
2023-03-28T07:27:38.698Z,20.17
2023-03-28T07:28:38.835Z,20.21
2023-03-28T07:29:38.784Z,20.81
2023-03-28T07:30:38.852Z,20.56
2023-03-28T07:31:38.823Z,20.18
2023-03-28T07:32:50.471Z,19.68
2023-03-28T07:33:39.853Z,19.09
2023-03-28T07:34:38.784Z,18.50
2023-03-28T07:35:38.805Z,18.50
2023-03-28T07:36:38.773Z,18.13
2023-03-28T07:37:38.763Z,17.87
2023-03-28T07:38:38.771Z,17.68
2023-03-28T07:39:38.733Z,17.53
2023-03-28T07:40:38.742Z,17.62
2023-03-28T07:41:38.744Z,17.82
2023-03-28T07:42:38.736Z,17.86
2023-03-28T07:43:38.735Z,17.96
2023-03-28T07:44:40.950Z,17.83
2023-03-28T07:45:38.706Z,17.58
2023-03-28T07:46:38.704Z,17.59
2023-03-28T07:47:38.753Z,17.53
2023-03-28T07:48:38.867Z,17.62
2023-03-28T07:49:38.681Z,17.62
2023-03-28T07:50:38.689Z,17.52
2023-03-28T07:51:38.853Z,17.48
2023-03-28T07:52:38.666Z,17.53
2023-03-28T07:53:38.698Z,17.77
2023-03-28T07:54:38.646Z,17.84
2023-03-28T07:56:40.984Z,18.08
2023-03-28T07:57:38.674Z,18.09
2023-03-28T07:58:38.700Z,18.06
2023-03-28T07:59:38.727Z,18.31
2023-03-28T08:00:38.753Z,18.79
2023-03-28T08:01:38.807Z,19.31
2023-03-28T08:02:39.766Z,19.48
2023-03-28T08:03:38.980Z,19.49
2023-03-28T08:04:38.885Z,19.79
2023-03-28T08:05:38.985Z,19.84
2023-03-28T08:06:38.962Z,19.79
2023-03-28T08:07:39.003Z,19.70
2023-03-28T08:08:39.010Z,19.59
2023-03-28T08:09:39.126Z,19.73
2023-03-28T08:10:39.169Z,19.63
2023-03-28T08:11:39.178Z,19.67
2023-03-28T08:12:39.218Z,19.66
2023-03-28T08:13:39.187Z,19.68
2023-03-28T08:14:39.223Z,19.68
2023-03-28T08:15:39.233Z,19.71
2023-03-28T08:16:39.247Z,19.70
2023-03-28T08:17:39.282Z,19.42
2023-03-28T08:18:39.251Z,19.71
2023-03-28T08:19:39.249Z,19.39
2023-03-28T08:20:39.294Z,19.50
2023-03-28T08:21:39.345Z,20.68
2023-03-28T08:22:39.883Z,20.66
2023-03-28T08:23:39.387Z,19.82
2023-03-28T08:24:39.416Z,19.70
2023-03-28T08:25:39.479Z,20.12
2023-03-28T08:26:39.517Z,20.39
2023-03-28T08:27:39.532Z,20.53
2023-03-28T08:28:39.588Z,20.52
2023-03-28T08:29:39.649Z,20.34
2023-03-28T08:30:39.650Z,20.11
2023-03-28T08:31:39.709Z,19.78
2023-03-28T08:32:39.750Z,19.56
2023-03-28T08:33:39.780Z,19.35
2023-03-28T08:34:39.764Z,19.25
2023-03-28T08:35:39.886Z,20.50
2023-03-28T08:36:39.866Z,20.76
2023-03-28T08:37:39.894Z,20.92
2023-03-28T08:38:39.936Z,20.96
2023-03-28T08:39:39.960Z,20.29
2023-03-28T08:40:40.045Z,20.41
2023-03-28T08:41:40.019Z,20.17
2023-03-28T08:42:40.052Z,19.95
2023-03-28T08:43:40.110Z,19.99
2023-03-28T08:44:40.318Z,19.86
2023-03-28T08:45:40.168Z,20.15
2023-03-28T08:46:40.234Z,20.38
2023-03-28T08:47:40.247Z,19.69
2023-03-28T08:48:40.240Z,19.84
2023-03-28T08:49:40.269Z,19.77
2023-03-28T08:50:40.284Z,20.07
2023-03-28T08:51:40.310Z,19.80
2023-03-28T08:52:40.352Z,20.08
2023-03-28T08:53:40.401Z,20.12
2023-03-28T08:54:40.411Z,19.64
2023-03-28T08:55:40.444Z,19.59
2023-03-28T08:56:41.394Z,19.92
2023-03-28T08:57:40.481Z,19.33
2023-03-28T08:58:40.524Z,19.15
2023-03-28T08:59:40.587Z,19.35
2023-03-28T09:00:40.574Z,19.38
2023-03-28T09:01:40.603Z,19.34
2023-03-28T09:02:40.623Z,18.82
2023-03-28T09:03:40.719Z,18.77
2023-03-28T09:04:40.626Z,18.58
2023-03-28T09:05:40.652Z,18.63
2023-03-28T09:06:40.663Z,18.60
2023-03-28T09:07:40.686Z,18.74
2023-03-28T09:08:40.730Z,18.49
2023-03-28T09:09:40.782Z,19.11
2023-03-28T09:10:40.816Z,19.05
2023-03-28T09:11:40.874Z,18.72
2023-03-28T09:12:40.892Z,18.71
2023-03-28T09:13:40.900Z,18.70
2023-03-28T09:14:40.970Z,18.70
2023-03-28T09:15:40.964Z,18.69
2023-03-28T09:16:41.018Z,18.74
2023-03-28T09:17:41.037Z,18.61
2023-03-28T09:18:41.025Z,18.60
2023-03-28T09:19:48.274Z,18.67
2023-03-28T09:20:43.291Z,18.78
2023-03-28T09:21:41.134Z,18.79
2023-03-28T09:22:41.063Z,18.86
2023-03-28T09:23:41.049Z,18.89
2023-03-28T09:24:41.065Z,18.96
2023-03-28T09:25:41.140Z,19.02
2023-03-28T09:26:41.198Z,20.21
2023-03-28T09:27:41.232Z,20.13
2023-03-28T09:28:41.303Z,20.00
2023-03-28T09:29:41.380Z,19.69
2023-03-28T09:30:41.378Z,19.44
2023-03-28T09:31:41.500Z,19.44
2023-03-28T09:32:41.560Z,18.96
2023-03-28T09:33:41.568Z,19.08
2023-03-28T09:34:41.899Z,18.92
2023-03-28T09:35:41.619Z,18.85
2023-03-28T09:37:41.623Z,18.63
2023-03-28T09:38:41.649Z,18.27
2023-03-28T09:39:41.663Z,18.29
2023-03-28T09:40:41.609Z,18.37
2023-03-28T09:41:41.635Z,18.03
2023-03-28T09:42:41.628Z,17.76
2023-03-28T09:43:41.588Z,17.65
2023-03-28T09:44:53.432Z,17.68
2023-03-28T09:45:42.600Z,17.67
2023-03-28T09:46:41.574Z,17.57
2023-03-28T09:47:41.658Z,17.39
2023-03-28T09:48:41.665Z,17.35
2023-03-28T09:49:41.920Z,17.29
2023-03-28T09:50:41.610Z,17.38
2023-03-28T09:51:41.671Z,17.28
2023-03-28T09:52:41.696Z,17.56
2023-03-28T09:53:41.753Z,17.38
2023-03-28T09:54:41.819Z,17.41
2023-03-28T09:55:45.334Z,16.99
2023-03-28T09:56:42.914Z,16.95
2023-03-28T09:57:41.871Z,16.96
2023-03-28T09:58:41.852Z,16.90
2023-03-28T09:59:41.898Z,16.94
2023-03-28T10:00:41.900Z,17.14
2023-03-28T10:01:41.896Z,17.38
2023-03-28T10:02:41.812Z,17.38
2023-03-28T10:03:41.826Z,17.68
2023-03-28T10:04:41.962Z,17.83
2023-03-28T10:05:41.813Z,17.65
2023-03-28T10:06:41.784Z,17.38
2023-03-28T10:07:41.768Z,16.99
2023-03-28T10:08:41.750Z,17.15
2023-03-28T10:09:41.925Z,17.32
2023-03-28T10:10:41.920Z,17.35
2023-03-28T10:11:41.889Z,16.80
2023-03-28T10:12:41.897Z,16.74
2023-03-28T10:13:41.975Z,16.57
2023-03-28T10:14:42.028Z,16.43
2023-03-28T10:15:42.116Z,16.30
2023-03-28T10:16:42.948Z,16.30
2023-03-28T10:17:42.222Z,16.56
2023-03-28T10:18:42.213Z,16.72
2023-03-28T10:19:42.245Z,16.60
2023-03-28T10:20:42.408Z,16.57
2023-03-28T10:21:42.315Z,17.73
2023-03-28T10:22:42.358Z,17.85
2023-03-28T10:23:42.432Z,18.27
2023-03-28T10:24:42.474Z,19.12
2023-03-28T10:25:42.922Z,18.57
2023-03-28T10:26:42.549Z,18.71
2023-03-28T10:27:42.568Z,18.17
2023-03-28T10:28:42.601Z,17.78
2023-03-28T10:29:42.660Z,17.79
2023-03-28T10:30:42.696Z,17.80
2023-03-28T10:31:42.763Z,17.74
2023-03-28T10:32:42.758Z,17.96
2023-03-28T10:33:42.762Z,17.77
2023-03-28T10:34:42.787Z,17.61
2023-03-28T10:35:42.882Z,17.46
2023-03-28T10:36:42.874Z,17.64
2023-03-28T10:37:42.912Z,17.79
2023-03-28T10:38:42.943Z,17.87
2023-03-28T10:39:42.959Z,17.71
2023-03-28T10:40:43.036Z,17.46
2023-03-28T10:41:43.048Z,17.55
2023-03-28T10:42:43.083Z,17.58
2023-03-28T10:43:43.098Z,17.93
2023-03-28T10:44:43.103Z,17.46
2023-03-28T10:45:43.138Z,17.48
2023-03-28T10:46:43.190Z,18.00
2023-03-28T10:47:43.220Z,17.67
2023-03-28T10:48:43.196Z,17.07
2023-03-28T10:49:43.184Z,17.20
2023-03-28T10:50:43.216Z,17.18
2023-03-28T10:51:43.470Z,17.14
2023-03-28T10:52:43.313Z,17.25
2023-03-28T10:53:43.340Z,17.27
2023-03-28T10:54:43.358Z,17.61
2023-03-28T10:55:43.371Z,17.37
2023-03-28T10:56:43.400Z,17.48
2023-03-28T10:57:43.373Z,17.58
2023-03-28T10:58:43.393Z,17.45
2023-03-28T10:59:43.406Z,17.19
2023-03-28T11:00:43.449Z,17.72
2023-03-28T11:01:43.501Z,17.47
2023-03-28T11:02:43.591Z,17.75
2023-03-28T11:03:43.642Z,18.26
2023-03-28T11:04:43.633Z,17.96
2023-03-28T11:05:45.218Z,17.54
2023-03-28T11:06:44.682Z,17.28
2023-03-28T11:07:43.662Z,17.54
2023-03-28T11:08:43.656Z,17.09
2023-03-28T11:09:43.645Z,17.21
2023-03-28T11:10:43.633Z,17.57
2023-03-28T11:11:43.624Z,17.66
2023-03-28T11:12:54.223Z,18.36
2023-03-28T11:13:44.617Z,18.53
2023-03-28T11:14:43.613Z,18.42
2023-03-28T11:15:43.625Z,18.05
2023-03-28T11:16:43.947Z,18.48
2023-03-28T11:17:43.972Z,18.62
2023-03-28T11:18:43.594Z,18.63
2023-03-28T11:19:43.602Z,19.24
2023-03-28T11:20:43.612Z,19.23
2023-03-28T11:21:43.636Z,19.21
2023-03-28T11:22:52.308Z,19.10
2023-03-28T11:23:44.627Z,19.07
2023-03-28T11:24:43.640Z,19.28
2023-03-28T11:25:43.636Z,19.12
2023-03-28T11:26:43.628Z,18.96
2023-03-28T11:27:43.658Z,18.84
2023-03-28T11:28:46.064Z,18.96
2023-03-28T11:29:44.427Z,18.75
2023-03-28T11:30:43.661Z,18.89
2023-03-28T11:31:43.748Z,18.95
2023-03-28T11:32:43.651Z,18.87
2023-03-28T11:33:43.619Z,18.82
2023-03-28T11:34:43.630Z,18.74
2023-03-28T11:35:43.668Z,18.76
2023-03-28T11:36:43.608Z,18.72
2023-03-28T11:37:43.606Z,18.63
2023-03-28T11:38:43.612Z,18.62
2023-03-28T11:39:43.579Z,18.52
2023-03-28T11:40:43.573Z,18.48
2023-03-28T11:41:43.618Z,18.43
2023-03-28T11:42:43.568Z,18.39
2023-03-28T11:43:43.546Z,18.37
2023-03-28T11:44:43.557Z,18.33
2023-03-28T11:45:52.220Z,18.29
2023-03-28T11:46:44.640Z,18.28
2023-03-28T11:47:43.642Z,18.25
2023-03-28T11:48:43.535Z,18.25
2023-03-28T11:49:43.527Z,18.13
2023-03-28T11:50:43.504Z,18.06
2023-03-28T11:51:43.509Z,18.06
2023-03-28T11:52:43.490Z,18.05
2023-03-28T11:53:43.495Z,18.08
2023-03-28T11:54:43.480Z,18.09
2023-03-28T11:55:43.483Z,18.02
2023-03-28T11:56:43.568Z,17.98
2023-03-28T11:57:43.446Z,17.94
2023-03-28T11:58:43.503Z,17.91
2023-03-28T11:59:43.572Z,17.89
2023-03-28T12:00:43.650Z,17.88
2023-03-28T12:01:43.618Z,17.79
2023-03-28T12:02:43.683Z,17.78
2023-03-28T12:03:43.709Z,17.78
2023-03-28T12:04:43.710Z,17.79
2023-03-28T12:05:43.729Z,17.84
2023-03-28T12:06:52.394Z,17.79
2023-03-28T12:07:44.746Z,17.80
2023-03-28T12:08:43.736Z,17.68
2023-03-28T12:09:43.708Z,17.76
2023-03-28T12:10:43.724Z,17.71
2023-03-28T12:11:43.701Z,17.70
2023-03-28T12:12:43.723Z,17.72
2023-03-28T12:13:46.220Z,17.69
2023-03-28T12:14:43.697Z,17.71
2023-03-28T12:15:43.963Z,17.73
2023-03-28T12:16:43.819Z,17.75
2023-03-28T12:17:43.688Z,17.71
2023-03-28T12:18:43.660Z,17.67
2023-03-28T12:19:43.668Z,17.66
2023-03-28T12:20:43.960Z,17.60
2023-03-28T12:21:43.650Z,17.62
2023-03-28T12:22:43.635Z,17.60
2023-03-28T12:23:43.615Z,17.52
2023-03-28T12:24:43.600Z,17.58
2023-03-28T12:25:43.624Z,17.57
2023-03-28T12:26:43.582Z,17.50
2023-03-28T12:27:43.618Z,17.46
2023-03-28T12:28:43.636Z,17.50
2023-03-28T12:29:43.662Z,17.50
2023-03-28T12:30:43.726Z,17.54
2023-03-28T12:31:43.736Z,17.54
2023-03-28T12:32:43.880Z,17.48
2023-03-28T12:33:43.810Z,17.50
2023-03-28T12:34:43.803Z,17.45
2023-03-28T12:35:43.860Z,17.46
2023-03-28T12:36:43.833Z,17.48
2023-03-28T12:37:43.864Z,17.46
2023-03-28T12:38:43.857Z,17.47
2023-03-28T12:39:43.897Z,17.38
2023-03-28T12:40:43.901Z,17.38
2023-03-28T12:41:43.925Z,17.34
2023-03-28T12:42:43.970Z,17.39
2023-03-28T12:43:43.956Z,17.38
2023-03-28T12:44:43.983Z,17.33
2023-03-28T12:45:44.038Z,17.37
2023-03-28T12:46:43.989Z,17.32
2023-03-28T12:47:44.056Z,17.23
2023-03-28T12:48:44.075Z,17.27
2023-03-28T12:49:44.136Z,17.30
2023-03-28T12:50:44.184Z,17.26
2023-03-28T12:51:44.245Z,17.25
2023-03-28T12:52:44.285Z,17.19
2023-03-28T12:53:44.352Z,17.16
2023-03-28T12:54:44.389Z,17.16